This is the latest recevied weather packets stored in our database for station/object JM1YTT-13. If no packets are shown the sender has not sent any weather packets the latest 10 day(s).
| Time | Temp. | Humidity | Pressure | Rain* | Wind** | Luminosity | Snow |
|---|---|---|---|---|---|---|---|
| 1788235963 | 28.33° C | 79% | 1014.2 hPa | 0 mm | - | - | - |
| 1788210763 | 21.67° C | 94% | 1014.9 hPa | 0 mm | - | - | - |
| 1788207163 | 21.67° C | 94% | 1014.9 hPa | 0 mm | - | - | - |
| 1788203563 | 21.67° C | 94% | 1014.9 hPa | 0 mm | - | - | - |
| 1788199963 | 22.22° C | 93% | 1015 hPa | 0 mm | - | - | - |
| 1788198163 | 22.22° C | 93% | 1015.1 hPa | 0 mm | - | - | - |
| 1788196363 | 22.22° C | 93% | 1015.1 hPa | 0 mm | - | - | - |
| 1788192763 | 22.22° C | 93% | 1014.8 hPa | 0 mm | - | - | - |
| 1788189163 | 22.22° C | 92% | 1015 hPa | 0 mm | - | - | - |
| 1788187363 | 22.22° C | 91% | 1014.9 hPa | 0 mm | - | - | - |
| 1788185563 | 22.22° C | 91% | 1014.9 hPa | 0 mm | - | - | - |
| 1788183763 | 22.22° C | 91% | 1014.8 hPa | 0 mm | - | - | - |
| 1788181963 | 22.78° C | 91% | 1014.8 hPa | 0 mm | - | - | - |
| 1788180163 | 22.78° C | 90% | 1014.7 hPa | 0 mm | - | - | - |
| 1788178363 | 22.78° C | 90% | 1014.6 hPa | 0 mm | - | - | - |
| 1788174764 | 22.78° C | 89% | 1014.5 hPa | 0 mm | - | - | - |
| 1788172963 | 22.78° C | 89% | 1014.3 hPa | 0 mm | - | - | - |
| 1788171163 | 23.33° C | 88% | 1013.9 hPa | 0 mm | - | - | - |
| 1788169363 | 23.33° C | 87% | 1013.6 hPa | 0 mm | - | - | - |
| 1788167563 | 23.89° C | 85% | 1013.2 hPa | 0 mm | - | - | - |
| 1788165763 | 24.44° C | 83% | 1012.9 hPa | 0 mm | - | - | - |
| 1788163963 | 25° C | 81% | 1012.8 hPa | 0 mm | - | - | - |
| 1788162163 | 26.11° C | 79% | 1012.5 hPa | 0 mm | - | - | - |
| 1788160363 | 27.22° C | 75% | 1012.3 hPa | 0 mm | - | - | - |
| 1788158563 | 27.78° C | 74% | 1012.1 hPa | 0 mm | - | - | - |
* Rain latest hour (hover to see other rain measurements)
** Current wind speed in m/s (hover to see current wind gust speed)